createdAt,value
2022-10-10T00:00:41.659Z,0.00
2022-10-10T00:01:41.652Z,0.00
2022-10-10T00:02:41.616Z,0.00
2022-10-10T00:03:41.623Z,0.00
2022-10-10T00:04:41.584Z,0.00
2022-10-10T00:05:41.593Z,0.00
2022-10-10T00:06:41.554Z,0.00
2022-10-10T00:07:41.573Z,0.00
2022-10-10T00:08:41.534Z,0.00
2022-10-10T00:09:41.524Z,0.00
2022-10-10T00:10:41.520Z,0.00
2022-10-10T00:11:41.494Z,0.00
2022-10-10T00:12:41.516Z,0.00
2022-10-10T00:13:41.484Z,0.00
2022-10-10T00:14:41.509Z,0.00
2022-10-10T00:15:43.717Z,0.00
2022-10-10T00:16:42.474Z,0.00
2022-10-10T00:17:41.435Z,0.00
2022-10-10T00:18:41.421Z,0.00
2022-10-10T00:19:41.411Z,0.00
2022-10-10T00:20:41.405Z,0.00
2022-10-10T00:21:41.394Z,0.00
2022-10-10T00:22:41.405Z,0.00
2022-10-10T00:23:41.376Z,0.00
2022-10-10T00:24:41.366Z,0.00
2022-10-10T00:25:41.345Z,0.00
2022-10-10T00:26:41.326Z,0.00
2022-10-10T00:27:41.335Z,0.00
2022-10-10T00:28:41.377Z,0.00
2022-10-10T00:29:41.296Z,0.00
2022-10-10T00:30:41.296Z,0.00
2022-10-10T00:31:41.290Z,0.00
2022-10-10T00:32:41.276Z,0.00
2022-10-10T00:33:41.292Z,0.00
2022-10-10T00:34:41.269Z,0.00
2022-10-10T00:35:41.218Z,0.00
2022-10-10T00:36:41.216Z,0.00
2022-10-10T00:37:41.210Z,0.00
2022-10-10T00:38:41.226Z,0.00
2022-10-10T00:39:41.189Z,0.00
2022-10-10T00:40:41.178Z,0.00
2022-10-10T00:41:41.176Z,0.00
2022-10-10T00:42:41.176Z,0.00
2022-10-10T00:43:41.130Z,0.00
2022-10-10T00:44:41.149Z,0.00
2022-10-10T00:45:41.118Z,0.00
2022-10-10T00:46:41.099Z,0.00
2022-10-10T00:47:41.161Z,0.00
2022-10-10T00:48:41.130Z,0.00
2022-10-10T00:49:41.068Z,0.00
2022-10-10T00:50:41.056Z,0.00
2022-10-10T00:51:41.072Z,0.00
2022-10-10T00:52:41.036Z,0.00
2022-10-10T00:53:41.047Z,0.00
2022-10-10T00:54:41.039Z,0.00
2022-10-10T00:55:41.001Z,0.00
2022-10-10T00:56:40.991Z,0.00
2022-10-10T00:57:40.979Z,0.00
2022-10-10T00:58:40.989Z,0.00
2022-10-10T00:59:40.959Z,0.00
2022-10-10T01:00:40.984Z,0.00
2022-10-10T01:01:40.952Z,0.00
2022-10-10T01:02:40.954Z,0.00
2022-10-10T01:03:40.910Z,0.00
2022-10-10T01:04:45.187Z,0.00
2022-10-10T01:05:41.189Z,0.00
2022-10-10T01:06:40.882Z,0.00
2022-10-10T01:07:40.893Z,0.00
2022-10-10T01:08:40.868Z,0.00
2022-10-10T01:09:40.860Z,0.00
2022-10-10T01:10:40.829Z,0.00
2022-10-10T01:11:40.830Z,0.00
2022-10-10T01:12:40.844Z,0.00
2022-10-10T01:13:40.810Z,0.00
2022-10-10T01:14:40.791Z,0.00
2022-10-10T01:15:40.844Z,0.00
2022-10-10T01:16:40.781Z,0.00
2022-10-10T01:17:40.891Z,0.00
2022-10-10T01:18:40.764Z,0.00
2022-10-10T01:19:40.773Z,0.00
2022-10-10T01:20:40.737Z,0.00
2022-10-10T01:21:40.708Z,0.00
2022-10-10T01:22:40.738Z,0.00
2022-10-10T01:23:40.691Z,0.00
2022-10-10T01:24:40.693Z,0.00
2022-10-10T01:25:40.661Z,0.00
2022-10-10T01:26:40.667Z,0.00
2022-10-10T01:27:40.651Z,0.00
2022-10-10T01:28:40.679Z,0.00
2022-10-10T01:29:40.632Z,0.00
2022-10-10T01:30:40.612Z,0.00
2022-10-10T01:31:40.594Z,0.00
2022-10-10T01:32:40.627Z,0.00
2022-10-10T01:33:40.573Z,0.00
2022-10-10T01:34:40.564Z,0.00
2022-10-10T01:35:40.553Z,0.00
2022-10-10T01:36:40.552Z,0.00
2022-10-10T01:37:40.533Z,0.00
2022-10-10T01:38:40.525Z,0.00
2022-10-10T01:39:40.523Z,0.00
2022-10-10T01:40:40.505Z,0.00
2022-10-10T01:41:40.484Z,0.00
2022-10-10T01:42:40.512Z,0.00
2022-10-10T01:43:40.473Z,0.00
2022-10-10T01:44:40.477Z,0.00
2022-10-10T01:45:40.434Z,0.00
2022-10-10T01:46:40.450Z,0.00
2022-10-10T01:47:40.444Z,0.00
2022-10-10T01:48:40.403Z,0.00
2022-10-10T01:49:40.412Z,0.00
2022-10-10T01:50:40.452Z,0.00
2022-10-10T01:51:40.384Z,0.00
2022-10-10T01:52:40.363Z,0.00
2022-10-10T01:53:40.373Z,0.00
2022-10-10T01:54:40.344Z,0.00
2022-10-10T01:55:40.332Z,0.00
2022-10-10T01:56:40.334Z,0.00
2022-10-10T01:57:40.338Z,0.00
2022-10-10T01:58:40.297Z,0.00
2022-10-10T01:59:40.286Z,0.00
2022-10-10T02:00:40.348Z,0.00
2022-10-10T02:01:40.265Z,0.00
2022-10-10T02:02:40.287Z,0.00
2022-10-10T02:03:40.264Z,0.00
2022-10-10T02:04:40.235Z,0.00
2022-10-10T02:05:40.239Z,0.00
2022-10-10T02:06:40.224Z,0.00
2022-10-10T02:07:40.214Z,0.00
2022-10-10T02:08:40.175Z,0.00
2022-10-10T02:09:40.182Z,0.00
2022-10-10T02:10:40.167Z,0.00
2022-10-10T02:11:40.166Z,0.00
2022-10-10T02:12:40.176Z,0.00
2022-10-10T02:13:40.137Z,0.00
2022-10-10T02:14:40.121Z,0.00
2022-10-10T02:15:40.112Z,0.00
2022-10-10T02:16:40.097Z,0.00
2022-10-10T02:17:40.098Z,0.00
2022-10-10T02:18:40.076Z,0.00
2022-10-10T02:19:40.056Z,0.00
2022-10-10T02:20:40.063Z,0.00
2022-10-10T02:21:40.066Z,0.00
2022-10-10T02:22:40.057Z,0.00
2022-10-10T02:23:40.028Z,0.00
2022-10-10T02:24:40.013Z,0.00
2022-10-10T02:25:39.994Z,0.00
2022-10-10T02:26:39.976Z,0.00
2022-10-10T02:27:39.989Z,0.00
2022-10-10T02:28:40.055Z,0.00
2022-10-10T02:29:39.965Z,0.00
2022-10-10T02:30:39.939Z,0.00
2022-10-10T02:31:39.946Z,0.00
2022-10-10T02:32:39.919Z,0.00
2022-10-10T02:33:39.897Z,0.00
2022-10-10T02:34:39.907Z,0.00
2022-10-10T02:35:39.897Z,0.00
2022-10-10T02:36:39.877Z,0.00
2022-10-10T02:37:39.877Z,0.00
2022-10-10T02:38:39.864Z,0.00
2022-10-10T02:39:39.838Z,0.00
2022-10-10T02:40:39.830Z,0.00
2022-10-10T02:41:39.819Z,0.00
2022-10-10T02:42:39.809Z,0.00
2022-10-10T02:43:39.804Z,0.00
2022-10-10T02:44:39.779Z,0.00
2022-10-10T02:45:39.777Z,0.00
2022-10-10T02:46:39.757Z,0.00
2022-10-10T02:47:39.748Z,0.00
2022-10-10T02:48:39.747Z,0.00
2022-10-10T02:49:39.732Z,0.00
2022-10-10T02:50:39.727Z,0.00
2022-10-10T02:51:39.760Z,0.00
2022-10-10T02:52:39.720Z,0.00
2022-10-10T02:53:39.691Z,0.00
2022-10-10T02:54:39.659Z,0.00
2022-10-10T02:55:39.683Z,0.00
2022-10-10T02:56:39.651Z,0.00
2022-10-10T02:57:39.639Z,0.00
2022-10-10T02:58:39.639Z,0.00
2022-10-10T02:59:39.609Z,0.00
2022-10-10T03:00:39.608Z,0.00
2022-10-10T03:01:39.593Z,0.00
2022-10-10T03:02:39.620Z,0.00
2022-10-10T03:03:39.561Z,0.00
2022-10-10T03:04:39.563Z,0.00
2022-10-10T03:05:39.550Z,0.00
2022-10-10T03:06:39.540Z,0.00
2022-10-10T03:07:39.539Z,0.00
2022-10-10T03:08:39.525Z,0.00
2022-10-10T03:09:39.499Z,0.00
2022-10-10T03:10:39.491Z,0.00
2022-10-10T03:11:39.487Z,0.00
2022-10-10T03:12:39.475Z,0.00
2022-10-10T03:13:39.480Z,0.00
2022-10-10T03:14:39.441Z,0.00
2022-10-10T03:15:39.440Z,0.00
2022-10-10T03:16:39.422Z,0.00
2022-10-10T03:17:39.414Z,0.00
2022-10-10T03:18:39.402Z,0.00
2022-10-10T03:19:39.391Z,0.00
2022-10-10T03:20:39.379Z,0.00
2022-10-10T03:21:39.370Z,0.00
2022-10-10T03:22:39.417Z,0.00
2022-10-10T03:23:39.361Z,0.00
2022-10-10T03:24:39.322Z,0.00
2022-10-10T03:25:39.313Z,0.00
2022-10-10T03:26:39.312Z,0.00
2022-10-10T03:27:39.323Z,0.00
2022-10-10T03:28:39.375Z,0.00
2022-10-10T03:29:39.289Z,0.00
2022-10-10T03:30:39.261Z,0.00
2022-10-10T03:31:39.260Z,0.00
2022-10-10T03:32:39.242Z,0.00
2022-10-10T03:33:39.286Z,0.00
2022-10-10T03:34:39.226Z,0.00
2022-10-10T03:35:39.221Z,0.00
2022-10-10T03:36:39.203Z,0.00
2022-10-10T03:37:39.202Z,0.00
2022-10-10T03:38:39.184Z,0.00
2022-10-10T03:39:39.201Z,0.00
2022-10-10T03:40:39.163Z,0.00
2022-10-10T03:41:39.135Z,0.00
2022-10-10T03:42:39.133Z,0.00
2022-10-10T03:43:39.146Z,0.00
2022-10-10T03:44:39.102Z,0.00
2022-10-10T03:45:39.116Z,0.00
2022-10-10T03:46:39.095Z,0.00
2022-10-10T03:47:39.087Z,0.00
2022-10-10T03:48:39.073Z,0.00
2022-10-10T03:49:39.052Z,0.00
2022-10-10T03:50:39.072Z,0.00
2022-10-10T03:51:39.026Z,0.00
2022-10-10T03:52:39.050Z,0.00
2022-10-10T03:53:39.066Z,0.00
2022-10-10T03:54:39.020Z,0.00
2022-10-10T03:55:38.989Z,0.00
2022-10-10T03:56:38.978Z,0.00
2022-10-10T03:57:38.977Z,0.00
2022-10-10T03:58:38.963Z,0.00
2022-10-10T03:59:38.925Z,0.00
2022-10-10T04:00:38.951Z,0.00
2022-10-10T04:01:38.957Z,0.00
2022-10-10T04:02:38.921Z,0.00
2022-10-10T04:03:38.905Z,0.00
2022-10-10T04:04:38.886Z,0.00
2022-10-10T04:05:38.877Z,0.00
2022-10-10T04:06:38.856Z,0.00
2022-10-10T04:07:38.845Z,0.00
2022-10-10T04:08:38.875Z,0.00
2022-10-10T04:09:38.838Z,0.00
2022-10-10T04:10:38.816Z,0.00
2022-10-10T04:11:38.809Z,0.00
2022-10-10T04:12:38.796Z,0.00
2022-10-10T04:13:38.793Z,0.00
2022-10-10T04:14:38.826Z,0.00
2022-10-10T04:15:38.761Z,0.00
2022-10-10T04:16:38.735Z,0.00
2022-10-10T04:17:38.739Z,0.00
2022-10-10T04:18:38.747Z,0.00
2022-10-10T04:19:38.714Z,0.00
2022-10-10T04:20:38.696Z,0.00
2022-10-10T04:21:38.688Z,0.00
2022-10-10T04:22:38.675Z,0.00
2022-10-10T04:23:38.676Z,0.00
2022-10-10T04:24:38.684Z,0.00
2022-10-10T04:25:38.654Z,0.00
2022-10-10T04:26:38.616Z,0.00
2022-10-10T04:27:38.656Z,0.00
2022-10-10T04:28:38.681Z,0.00
2022-10-10T04:29:38.595Z,0.00
2022-10-10T04:30:38.577Z,0.00
2022-10-10T04:31:38.586Z,0.00
2022-10-10T04:32:38.558Z,0.00
2022-10-10T04:33:38.568Z,0.00
2022-10-10T04:34:38.558Z,0.00
2022-10-10T04:35:38.550Z,0.00
2022-10-10T04:36:38.519Z,0.00
2022-10-10T04:37:38.503Z,0.00
2022-10-10T04:38:38.530Z,0.00
2022-10-10T04:39:38.489Z,0.00
2022-10-10T04:40:38.460Z,0.00
2022-10-10T04:41:38.469Z,0.00
2022-10-10T04:42:38.461Z,0.00
2022-10-10T04:43:38.449Z,0.00
2022-10-10T04:44:38.438Z,0.00
2022-10-10T04:45:38.423Z,0.00
2022-10-10T04:46:38.430Z,0.00
2022-10-10T04:47:38.410Z,0.00
2022-10-10T04:48:38.399Z,0.00
2022-10-10T04:49:38.389Z,0.00
2022-10-10T04:50:38.366Z,0.00
2022-10-10T04:51:38.437Z,0.00
2022-10-10T04:52:38.337Z,0.00
2022-10-10T04:53:38.405Z,0.00
2022-10-10T04:54:38.309Z,0.00
2022-10-10T04:55:38.320Z,0.00
2022-10-10T04:56:38.290Z,0.00
2022-10-10T04:57:38.287Z,0.00
2022-10-10T04:58:38.292Z,0.00
2022-10-10T04:59:38.271Z,0.00
2022-10-10T05:00:38.240Z,0.00
2022-10-10T05:01:38.268Z,0.00
2022-10-10T05:02:38.254Z,0.00
2022-10-10T05:03:38.211Z,0.00
2022-10-10T05:04:38.190Z,0.00
2022-10-10T05:05:38.212Z,0.00
2022-10-10T05:06:38.191Z,0.00
2022-10-10T05:07:38.160Z,0.00
2022-10-10T05:08:38.185Z,0.00
2022-10-10T05:09:38.153Z,0.00
2022-10-10T05:10:38.132Z,0.00
2022-10-10T05:11:38.111Z,0.00
2022-10-10T05:12:38.112Z,0.00
2022-10-10T05:13:38.138Z,0.00
2022-10-10T05:14:38.086Z,0.00
2022-10-10T05:15:38.083Z,0.00
2022-10-10T05:16:38.074Z,0.00
2022-10-10T05:17:38.051Z,0.00
2022-10-10T05:18:38.041Z,0.00
2022-10-10T05:19:38.052Z,0.00
2022-10-10T05:20:38.021Z,0.00
2022-10-10T05:21:38.006Z,0.00
2022-10-10T05:22:38.008Z,0.00
2022-10-10T05:23:38.014Z,0.00
2022-10-10T05:24:37.972Z,0.00
2022-10-10T05:25:37.963Z,0.00
2022-10-10T05:26:42.893Z,0.00
2022-10-10T05:27:38.954Z,0.00
2022-10-10T05:28:38.016Z,0.00
2022-10-10T05:29:37.926Z,0.00
2022-10-10T05:30:37.912Z,0.00
2022-10-10T05:31:37.924Z,0.00
2022-10-10T05:32:37.883Z,0.00
2022-10-10T05:33:37.884Z,0.00
2022-10-10T05:34:37.859Z,0.00
2022-10-10T05:35:37.844Z,0.00
2022-10-10T05:36:37.883Z,0.00
2022-10-10T05:37:37.823Z,0.00
2022-10-10T05:38:37.824Z,0.00
2022-10-10T05:39:37.824Z,5.62
2022-10-10T05:40:37.784Z,5.62
2022-10-10T05:41:37.785Z,5.62
2022-10-10T05:42:37.764Z,5.62
2022-10-10T05:43:37.789Z,5.62
2022-10-10T05:44:37.744Z,5.62
2022-10-10T05:45:37.738Z,11.25
2022-10-10T05:46:37.755Z,11.25
2022-10-10T05:47:37.707Z,11.25
2022-10-10T05:48:37.726Z,11.25
2022-10-10T05:49:37.694Z,11.25
2022-10-10T05:50:37.700Z,16.88
2022-10-10T05:51:37.656Z,16.88
2022-10-10T05:52:37.656Z,16.88
2022-10-10T05:53:37.688Z,16.88
2022-10-10T05:54:37.672Z,22.50
2022-10-10T05:55:37.616Z,22.50
2022-10-10T05:56:37.645Z,22.50
2022-10-10T05:57:37.587Z,22.50
2022-10-10T05:58:37.660Z,28.12
2022-10-10T05:59:37.576Z,28.12
2022-10-10T06:00:37.576Z,28.12
2022-10-10T06:01:37.549Z,33.75
2022-10-10T06:02:37.592Z,33.75
2022-10-10T06:03:37.555Z,33.75
2022-10-10T06:04:37.541Z,39.38
2022-10-10T06:05:37.506Z,39.38
2022-10-10T06:06:37.500Z,39.38
2022-10-10T06:08:02.508Z,39.38
2022-10-10T06:08:38.486Z,45.00
2022-10-10T06:09:37.466Z,45.00
2022-10-10T06:10:37.467Z,50.62
2022-10-10T06:11:37.447Z,50.62
2022-10-10T06:12:37.438Z,50.62
2022-10-10T06:13:37.457Z,56.25
2022-10-10T06:14:37.422Z,56.25
2022-10-10T06:15:37.398Z,56.25
2022-10-10T06:16:37.397Z,61.88
2022-10-10T06:17:37.400Z,61.88
2022-10-10T06:18:37.392Z,61.88
2022-10-10T06:19:37.348Z,67.50
2022-10-10T06:20:37.349Z,67.50
2022-10-10T06:21:37.330Z,67.50
2022-10-10T06:22:37.317Z,73.12
2022-10-10T06:23:37.342Z,73.12
2022-10-10T06:24:37.308Z,78.75
2022-10-10T06:25:41.488Z,78.75
2022-10-10T06:26:37.278Z,78.75
2022-10-10T06:27:37.280Z,84.38
2022-10-10T06:28:37.347Z,84.38
2022-10-10T06:29:37.239Z,90.00
2022-10-10T06:30:37.235Z,90.00
2022-10-10T06:31:37.228Z,90.00
2022-10-10T06:32:37.206Z,95.62
2022-10-10T06:33:37.217Z,95.62
2022-10-10T06:34:37.204Z,101.25
2022-10-10T06:35:37.189Z,101.25
2022-10-10T06:36:37.170Z,101.25
2022-10-10T06:37:37.169Z,106.88
2022-10-10T06:38:37.160Z,106.88
2022-10-10T06:39:37.128Z,106.88
2022-10-10T06:40:37.121Z,106.88
2022-10-10T06:41:37.120Z,106.88
2022-10-10T06:42:37.091Z,112.50
2022-10-10T06:43:37.148Z,112.50
2022-10-10T06:44:37.093Z,112.50
2022-10-10T06:45:37.070Z,118.12
2022-10-10T06:46:37.061Z,118.12
2022-10-10T06:47:37.050Z,118.12
2022-10-10T06:48:37.047Z,123.75
2022-10-10T06:49:37.010Z,123.75
2022-10-10T06:50:37.016Z,129.38
2022-10-10T06:51:37.004Z,129.38
2022-10-10T06:52:36.973Z,129.38
2022-10-10T06:53:36.986Z,129.38
2022-10-10T06:54:36.960Z,135.00
2022-10-10T06:55:36.986Z,135.00
2022-10-10T06:56:36.936Z,135.00
2022-10-10T06:57:36.933Z,140.62
2022-10-10T06:58:36.932Z,140.62
2022-10-10T06:59:36.923Z,146.25
2022-10-10T07:00:36.881Z,146.25
2022-10-10T07:01:36.932Z,146.25
2022-10-10T07:02:36.882Z,151.88
2022-10-10T07:03:36.878Z,151.88
2022-10-10T07:04:36.852Z,151.88
2022-10-10T07:05:36.844Z,157.50
2022-10-10T07:06:36.821Z,157.50
2022-10-10T07:07:36.820Z,163.12
2022-10-10T07:08:36.816Z,163.12
2022-10-10T07:09:36.793Z,163.12
2022-10-10T07:10:36.773Z,168.75
2022-10-10T07:11:36.778Z,174.38
2022-10-10T07:12:43.542Z,174.38
2022-10-10T07:13:37.757Z,174.38
2022-10-10T07:14:36.713Z,174.38
2022-10-10T07:15:36.723Z,174.38
2022-10-10T07:16:36.705Z,174.38
2022-10-10T07:17:36.683Z,180.00
2022-10-10T07:18:36.728Z,185.62
2022-10-10T07:19:36.692Z,185.62
2022-10-10T07:20:36.664Z,185.62
2022-10-10T07:21:36.633Z,191.25
2022-10-10T07:22:36.658Z,196.88
2022-10-10T07:23:36.624Z,196.88
2022-10-10T07:24:36.603Z,196.88
2022-10-10T07:25:36.594Z,202.50
2022-10-10T07:26:36.594Z,208.12
2022-10-10T07:27:36.567Z,208.12
2022-10-10T07:28:36.614Z,213.75
2022-10-10T07:29:36.561Z,213.75
2022-10-10T07:30:36.545Z,213.75
2022-10-10T07:31:36.534Z,219.38
2022-10-10T07:32:36.523Z,219.38
2022-10-10T07:33:36.536Z,219.38
2022-10-10T07:34:36.495Z,225.00
2022-10-10T07:35:36.489Z,225.00
2022-10-10T07:36:36.494Z,225.00
2022-10-10T07:37:36.479Z,225.00
2022-10-10T07:38:36.456Z,225.00
2022-10-10T07:39:36.435Z,230.62
2022-10-10T07:40:36.437Z,236.25
2022-10-10T07:41:36.405Z,236.25
2022-10-10T07:42:36.410Z,241.88
2022-10-10T07:43:36.417Z,241.88
2022-10-10T07:44:36.385Z,241.88
2022-10-10T07:45:36.369Z,241.88
2022-10-10T07:46:36.371Z,247.50
2022-10-10T07:47:36.338Z,247.50
2022-10-10T07:48:36.326Z,247.50
2022-10-10T07:49:36.327Z,247.50
2022-10-10T07:50:36.342Z,247.50
2022-10-10T07:51:36.295Z,247.50
2022-10-10T07:52:36.289Z,247.50
2022-10-10T07:53:36.311Z,247.50
2022-10-10T07:54:36.265Z,253.12
2022-10-10T07:55:36.247Z,253.12
2022-10-10T07:56:36.238Z,247.50
2022-10-10T07:57:36.228Z,247.50
2022-10-10T07:58:36.236Z,258.75
2022-10-10T07:59:36.236Z,258.75
2022-10-10T08:00:36.232Z,258.75
2022-10-10T08:01:36.234Z,253.12
2022-10-10T08:02:36.211Z,258.75
2022-10-10T08:03:36.204Z,253.12
2022-10-10T08:04:36.150Z,264.38
2022-10-10T08:05:36.141Z,264.38
2022-10-10T08:06:36.129Z,270.00
2022-10-10T08:07:36.120Z,275.62
2022-10-10T08:08:42.715Z,275.62
2022-10-10T08:09:37.103Z,281.25
2022-10-10T08:10:36.091Z,281.25
2022-10-10T08:11:36.071Z,281.25
2022-10-10T08:12:36.050Z,281.25
2022-10-10T08:13:36.099Z,281.25
2022-10-10T08:14:36.034Z,286.88
2022-10-10T08:15:36.021Z,286.88
2022-10-10T08:16:36.041Z,264.38
2022-10-10T08:17:36.013Z,275.62
2022-10-10T08:18:36.021Z,281.25
2022-10-10T08:19:35.976Z,281.25
2022-10-10T08:20:36.004Z,281.25
2022-10-10T08:21:35.962Z,275.62
2022-10-10T08:22:35.953Z,281.25
2022-10-10T08:23:35.944Z,275.62
2022-10-10T08:24:35.961Z,270.00
2022-10-10T08:25:35.926Z,264.38
2022-10-10T08:26:35.922Z,258.75
2022-10-10T08:27:35.918Z,258.75
2022-10-10T08:28:35.928Z,258.75
2022-10-10T08:29:35.863Z,253.12
2022-10-10T08:30:35.865Z,253.12
2022-10-10T08:31:35.844Z,253.12
2022-10-10T08:32:35.835Z,253.12
2022-10-10T08:33:35.864Z,253.12
2022-10-10T08:34:35.813Z,253.12
2022-10-10T08:35:35.793Z,253.12
2022-10-10T08:36:35.800Z,253.12
2022-10-10T08:37:37.475Z,253.12
2022-10-10T08:38:35.774Z,253.12
2022-10-10T08:39:35.735Z,247.50
2022-10-10T08:40:35.766Z,247.50
2022-10-10T08:41:35.724Z,241.88
2022-10-10T08:42:35.714Z,247.50
2022-10-10T08:43:35.734Z,241.88
2022-10-10T08:44:35.685Z,236.25
2022-10-10T08:45:35.675Z,230.62
2022-10-10T08:46:35.664Z,225.00
2022-10-10T08:47:35.667Z,230.62
2022-10-10T08:48:35.653Z,225.00
2022-10-10T08:49:35.637Z,230.62
2022-10-10T08:50:35.627Z,219.38
2022-10-10T08:51:35.607Z,213.75
2022-10-10T08:52:35.589Z,208.12
2022-10-10T08:53:35.605Z,196.88
2022-10-10T08:54:35.585Z,196.88
2022-10-10T08:55:35.565Z,196.88
2022-10-10T08:56:35.547Z,196.88
2022-10-10T08:57:35.563Z,202.50
2022-10-10T08:58:35.583Z,202.50
2022-10-10T08:59:35.517Z,202.50
2022-10-10T09:00:35.579Z,202.50
2022-10-10T09:01:35.509Z,208.12
2022-10-10T09:02:53.107Z,202.50
2022-10-10T09:03:36.512Z,196.88
2022-10-10T09:04:35.467Z,196.88
2022-10-10T09:05:35.462Z,191.25
2022-10-10T09:06:35.432Z,191.25
2022-10-10T09:07:35.428Z,196.88
2022-10-10T09:08:35.440Z,196.88
2022-10-10T09:09:35.408Z,202.50
2022-10-10T09:10:35.397Z,191.25
2022-10-10T09:11:35.393Z,196.88
2022-10-10T09:12:35.375Z,202.50
2022-10-10T09:13:35.381Z,208.12
2022-10-10T09:14:35.339Z,202.50
2022-10-10T09:15:35.347Z,191.25
2022-10-10T09:16:35.319Z,191.25
2022-10-10T09:17:35.344Z,191.25
2022-10-10T09:18:35.328Z,196.88
2022-10-10T09:19:35.302Z,208.12
2022-10-10T09:20:35.277Z,213.75
2022-10-10T09:21:35.302Z,208.12
2022-10-10T09:22:35.271Z,213.75
2022-10-10T09:23:35.271Z,213.75
2022-10-10T09:24:37.053Z,230.62
2022-10-10T09:25:35.242Z,225.00
2022-10-10T09:26:35.212Z,225.00
2022-10-10T09:27:35.211Z,230.62
2022-10-10T09:28:35.266Z,236.25
2022-10-10T09:29:35.181Z,219.38
2022-10-10T09:30:35.176Z,230.62
2022-10-10T09:31:35.153Z,230.62
2022-10-10T09:32:35.155Z,230.62
2022-10-10T09:33:35.151Z,225.00
2022-10-10T09:34:35.112Z,230.62
2022-10-10T09:35:35.121Z,225.00
2022-10-10T09:36:35.100Z,225.00
2022-10-10T09:37:46.723Z,230.62
2022-10-10T09:38:36.107Z,230.62
2022-10-10T09:39:35.063Z,236.25
2022-10-10T09:40:35.054Z,241.88
2022-10-10T09:41:35.033Z,241.88
2022-10-10T09:42:35.059Z,230.62
2022-10-10T09:43:35.023Z,241.88
2022-10-10T09:44:35.014Z,247.50
2022-10-10T09:45:35.013Z,241.88
2022-10-10T09:46:34.986Z,247.50
2022-10-10T09:47:34.964Z,241.88
2022-10-10T09:48:34.968Z,219.38
2022-10-10T09:49:34.955Z,253.12
2022-10-10T09:50:34.923Z,247.50
2022-10-10T09:51:34.919Z,253.12
2022-10-10T09:52:34.931Z,253.12
2022-10-10T09:53:34.905Z,253.12
2022-10-10T09:54:34.874Z,247.50
2022-10-10T09:55:34.894Z,208.12
2022-10-10T09:56:34.855Z,230.62
2022-10-10T09:57:34.846Z,241.88
2022-10-10T09:58:34.850Z,258.75
2022-10-10T09:59:34.824Z,258.75
2022-10-10T10:00:34.806Z,258.75
2022-10-10T10:01:34.914Z,258.75
2022-10-10T10:02:34.786Z,264.38
2022-10-10T10:03:34.809Z,264.38
2022-10-10T10:04:34.759Z,264.38
2022-10-10T10:05:34.773Z,270.00
2022-10-10T10:06:34.749Z,270.00
2022-10-10T10:07:34.731Z,275.62
2022-10-10T10:08:34.736Z,253.12
2022-10-10T10:09:34.753Z,275.62
2022-10-10T10:10:34.702Z,281.25
2022-10-10T10:11:34.681Z,286.88
2022-10-10T10:12:34.672Z,292.50
2022-10-10T10:13:34.732Z,298.12
2022-10-10T10:14:34.640Z,303.75
2022-10-10T10:15:34.681Z,309.38
2022-10-10T10:16:34.695Z,315.00
2022-10-10T10:17:34.629Z,320.62
2022-10-10T10:18:34.683Z,326.25
2022-10-10T10:19:34.598Z,331.88
2022-10-10T10:20:34.590Z,337.50
2022-10-10T10:21:34.630Z,343.12
2022-10-10T10:22:34.560Z,348.75
2022-10-10T10:23:34.576Z,360.00
2022-10-10T10:24:34.530Z,348.75
2022-10-10T10:25:34.518Z,348.75
2022-10-10T10:26:34.531Z,360.00
2022-10-10T10:27:34.512Z,315.00
2022-10-10T10:28:34.565Z,343.12
2022-10-10T10:29:34.752Z,376.88
2022-10-10T10:30:34.473Z,376.88
2022-10-10T10:31:34.475Z,393.75
2022-10-10T10:32:34.434Z,416.25
2022-10-10T10:33:34.455Z,421.88
2022-10-10T10:34:34.423Z,433.12
2022-10-10T10:35:34.413Z,410.62
2022-10-10T10:36:34.404Z,421.88
2022-10-10T10:37:34.393Z,416.25
2022-10-10T10:38:34.394Z,410.62
2022-10-10T10:39:34.382Z,416.25
2022-10-10T10:40:34.353Z,421.88
2022-10-10T10:41:34.370Z,405.00
2022-10-10T10:42:34.323Z,410.62
2022-10-10T10:43:34.354Z,405.00
2022-10-10T10:44:34.328Z,421.88
2022-10-10T10:45:34.306Z,427.50
2022-10-10T10:46:34.566Z,410.62
2022-10-10T10:47:34.390Z,421.88
2022-10-10T10:48:34.289Z,410.62
2022-10-10T10:49:34.301Z,416.25
2022-10-10T10:50:34.266Z,410.62
2022-10-10T10:51:34.246Z,405.00
2022-10-10T10:52:34.239Z,393.75
2022-10-10T10:53:34.237Z,376.88
2022-10-10T10:54:38.243Z,365.62
2022-10-10T10:55:39.056Z,354.38
2022-10-10T10:56:34.191Z,354.38
2022-10-10T10:57:40.889Z,343.12
2022-10-10T11:00:20.273Z,331.88
2022-10-10T11:01:28.548Z,326.25
2022-10-10T11:02:55.025Z,343.12
2022-10-10T11:04:15.993Z,343.12
2022-10-10T11:05:17.603Z,360.00
2022-10-10T11:05:40.776Z,354.38
2022-10-10T11:06:35.194Z,360.00
2022-10-10T11:07:34.127Z,348.75
2022-10-10T11:08:34.101Z,343.12
2022-10-10T11:09:50.640Z,343.12
2022-10-10T11:10:35.013Z,354.38
2022-10-10T11:11:34.010Z,360.00
2022-10-10T11:12:33.990Z,360.00
2022-10-10T11:13:34.823Z,371.25
2022-10-10T11:14:33.971Z,376.88
2022-10-10T11:16:01.463Z,382.50
2022-10-10T11:16:48.091Z,376.88
2022-10-10T11:17:37.253Z,371.25
2022-10-10T11:18:33.912Z,376.88
2022-10-10T11:19:33.943Z,382.50
2022-10-10T11:20:33.891Z,393.75
2022-10-10T11:21:33.886Z,399.38
2022-10-10T11:22:33.919Z,405.00
2022-10-10T11:23:33.891Z,410.62
2022-10-10T11:24:33.845Z,410.62
2022-10-10T11:25:33.953Z,399.38
2022-10-10T11:26:33.833Z,399.38
2022-10-10T11:27:33.815Z,388.12
2022-10-10T11:28:33.834Z,371.25
2022-10-10T11:29:33.805Z,371.25
2022-10-10T11:30:33.777Z,376.88
2022-10-10T11:31:33.785Z,382.50
2022-10-10T11:32:33.762Z,376.88
2022-10-10T11:33:33.754Z,382.50
2022-10-10T11:34:33.727Z,376.88
2022-10-10T11:35:33.736Z,399.38
2022-10-10T11:36:33.706Z,483.75
2022-10-10T11:37:33.686Z,472.50
2022-10-10T11:38:33.697Z,421.88
2022-10-10T11:39:33.666Z,433.12
2022-10-10T11:40:33.649Z,438.75
2022-10-10T11:41:33.638Z,461.25
2022-10-10T11:42:33.629Z,478.12
2022-10-10T11:43:33.631Z,461.25
2022-10-10T11:44:33.607Z,483.75
2022-10-10T11:45:33.599Z,466.88
2022-10-10T11:46:33.584Z,455.62
2022-10-10T11:47:33.568Z,438.75
2022-10-10T11:48:33.583Z,427.50
2022-10-10T11:49:33.599Z,427.50
2022-10-10T11:50:33.528Z,410.62
2022-10-10T11:51:33.575Z,421.88
2022-10-10T11:52:34.577Z,410.62
2022-10-10T11:53:33.519Z,450.00
2022-10-10T11:54:33.490Z,438.75
2022-10-10T11:55:33.498Z,450.00
2022-10-10T11:56:33.470Z,466.88
2022-10-10T11:57:33.526Z,495.00
2022-10-10T11:58:33.484Z,500.62
2022-10-10T11:59:33.418Z,489.38
2022-10-10T12:00:33.411Z,506.25
2022-10-10T12:01:33.404Z,483.75
2022-10-10T12:02:33.391Z,506.25
2022-10-10T12:03:33.396Z,495.00
2022-10-10T12:04:33.373Z,500.62
2022-10-10T12:05:33.368Z,495.00
2022-10-10T12:06:33.356Z,472.50
2022-10-10T12:07:33.340Z,478.12
2022-10-10T12:08:33.359Z,450.00
2022-10-10T12:09:33.333Z,450.00
2022-10-10T12:10:33.313Z,421.88
2022-10-10T12:11:33.295Z,421.88
2022-10-10T12:12:33.283Z,421.88
2022-10-10T12:13:33.299Z,421.88
2022-10-10T12:14:33.254Z,421.88
2022-10-10T12:15:36.223Z,421.88
2022-10-10T12:16:34.277Z,427.50
2022-10-10T12:17:33.233Z,427.50
2022-10-10T12:18:33.235Z,438.75
2022-10-10T12:19:33.232Z,472.50
2022-10-10T12:20:33.199Z,433.12
2022-10-10T12:21:33.209Z,438.75
2022-10-10T12:22:33.166Z,450.00
2022-10-10T12:23:33.230Z,455.62
2022-10-10T12:24:33.156Z,450.00
2022-10-10T12:25:33.139Z,450.00
2022-10-10T12:26:33.165Z,450.00
2022-10-10T12:27:33.107Z,455.62
2022-10-10T12:28:33.139Z,466.88
2022-10-10T12:29:33.126Z,472.50
2022-10-10T12:30:33.080Z,472.50
2022-10-10T12:31:33.056Z,466.88
2022-10-10T12:32:33.047Z,466.88
2022-10-10T12:33:33.055Z,461.25
2022-10-10T12:34:33.059Z,461.25
2022-10-10T12:35:33.029Z,461.25
2022-10-10T12:36:33.017Z,455.62
2022-10-10T12:37:32.990Z,455.62
2022-10-10T12:38:32.990Z,461.25
2022-10-10T12:39:32.991Z,495.00
2022-10-10T12:40:32.950Z,483.75
2022-10-10T12:41:32.960Z,472.50
2022-10-10T12:42:32.956Z,466.88
2022-10-10T12:43:32.924Z,450.00
2022-10-10T12:44:32.930Z,438.75
2022-10-10T12:45:32.933Z,421.88
2022-10-10T12:46:32.881Z,416.25
2022-10-10T12:47:59.950Z,416.25
2022-10-10T12:48:33.875Z,416.25
2022-10-10T12:49:32.872Z,410.62
2022-10-10T12:50:32.845Z,410.62
2022-10-10T12:51:32.909Z,405.00
2022-10-10T12:52:32.848Z,405.00
2022-10-10T12:53:32.816Z,405.00